createdAt,value
2023-05-09T00:01:43.866Z,101909.22
2023-05-09T00:04:11.316Z,101923.34
2023-05-09T00:06:38.454Z,101918.78
2023-05-09T00:09:05.570Z,101815.53
2023-05-09T00:11:32.738Z,101910.13
2023-05-09T00:13:59.806Z,101912.97
2023-05-09T00:16:26.997Z,101915.16
2023-05-09T00:18:54.454Z,101909.31
2023-05-09T00:21:21.633Z,101908.09
2023-05-09T00:23:48.769Z,101913.53
2023-05-09T00:26:16.283Z,101880.38
2023-05-09T00:28:44.368Z,101904.28
2023-05-09T00:31:11.382Z,101878.69
2023-05-09T00:33:38.568Z,101892.13
2023-05-09T00:36:05.909Z,101849.72
2023-05-09T00:38:33.041Z,101904.91
2023-05-09T00:41:00.136Z,101904.28
2023-05-09T00:43:27.321Z,101875.69
2023-05-09T00:45:54.430Z,101909.91
2023-05-09T00:48:22.433Z,101856.22
2023-05-09T00:50:52.997Z,101917.06
2023-05-09T00:53:20.810Z,101913.09
2023-05-09T00:55:48.784Z,101913.31
2023-05-09T00:58:16.916Z,101866.25
2023-05-09T01:00:44.006Z,101906.34
2023-05-09T01:03:11.572Z,101918.22
2023-05-09T01:05:57.261Z,101902.13
2023-05-09T01:08:34.582Z,101911.50
2023-05-09T01:11:10.817Z,101914.22
2023-05-09T01:13:46.942Z,101910.00
2023-05-09T01:16:26.590Z,101929.50
2023-05-09T01:19:20.077Z,101934.63
2023-05-09T01:21:49.280Z,101912.72
2023-05-09T01:24:34.730Z,101938.41
2023-05-09T01:27:14.079Z,101938.53
2023-05-09T01:30:03.316Z,101926.34
2023-05-09T01:32:34.152Z,101924.69
2023-05-09T01:35:04.619Z,101919.78
2023-05-09T01:37:35.037Z,101934.19
2023-05-09T01:40:10.537Z,101938.84
2023-05-09T01:42:43.536Z,101925.84
2023-05-09T01:45:12.751Z,101935.06
2023-05-09T01:47:41.745Z,101892.22
2023-05-09T01:50:12.247Z,101941.78
2023-05-09T01:52:41.343Z,101910.00
2023-05-09T01:55:09.627Z,101920.81
2023-05-09T01:57:38.680Z,101883.69
2023-05-09T02:00:10.779Z,101943.78
2023-05-09T02:02:41.699Z,101885.97
2023-05-09T02:05:12.051Z,101893.16
2023-05-09T02:07:41.852Z,101939.16
2023-05-09T02:10:11.137Z,101940.13
2023-05-09T02:12:38.931Z,101903.53
2023-05-09T02:15:07.068Z,101854.72
2023-05-09T02:17:35.166Z,101941.72
2023-05-09T02:20:02.208Z,101932.69
2023-05-09T02:22:31.267Z,101891.09
2023-05-09T02:24:58.494Z,101950.03
2023-05-09T02:27:27.147Z,101950.94
2023-05-09T02:29:57.679Z,101891.19
2023-05-09T02:32:29.311Z,101949.53
2023-05-09T02:34:58.910Z,101943.72
2023-05-09T02:37:27.058Z,101908.91
2023-05-09T02:39:55.396Z,101881.69
2023-05-09T02:42:30.159Z,101935.84
2023-05-09T02:44:57.202Z,101948.16
2023-05-09T02:47:24.378Z,101872.56
2023-05-09T02:49:51.412Z,101929.69
2023-05-09T02:52:18.626Z,101922.13
2023-05-09T02:54:45.888Z,101937.84
2023-05-09T02:57:13.002Z,101950.16
2023-05-09T02:59:40.169Z,101920.97
2023-05-09T03:02:07.320Z,101953.72
2023-05-09T03:04:34.543Z,101959.97
2023-05-09T03:07:02.085Z,101950.28
2023-05-09T03:09:32.456Z,101942.91
2023-05-09T03:12:00.529Z,101941.88
2023-05-09T03:14:27.523Z,101964.34
2023-05-09T03:16:55.141Z,101955.50
2023-05-09T03:19:30.290Z,101973.97
2023-05-09T03:21:57.379Z,101971.81
2023-05-09T03:24:28.241Z,101938.69
2023-05-09T03:26:55.419Z,101980.84
2023-05-09T03:29:22.620Z,101988.84
2023-05-09T03:31:49.799Z,101988.84
2023-05-09T03:34:17.049Z,101991.44
2023-05-09T03:36:45.181Z,101970.78
2023-05-09T03:39:14.703Z,101928.41
2023-05-09T03:41:44.947Z,102005.81
2023-05-09T03:44:12.682Z,101961.53
2023-05-09T03:46:39.808Z,101931.53
2023-05-09T03:49:07.546Z,101895.47
2023-05-09T03:51:35.562Z,102019.69
2023-05-09T03:54:05.745Z,101965.44
2023-05-09T03:56:33.016Z,102006.88
2023-05-09T03:59:00.150Z,102006.72
2023-05-09T04:01:28.181Z,102012.47
2023-05-09T04:04:00.330Z,101875.44
2023-05-09T04:06:30.202Z,102009.91
2023-05-09T04:08:58.350Z,102005.63
2023-05-09T04:11:25.785Z,102014.41
2023-05-09T04:13:54.594Z,101942.53
2023-05-09T04:16:26.949Z,102021.81
2023-05-09T04:18:54.477Z,102019.44
2023-05-09T04:21:21.698Z,102011.69
2023-05-09T04:23:51.587Z,101962.63
2023-05-09T04:26:24.798Z,102020.47
2023-05-09T04:28:54.910Z,101952.84
2023-05-09T04:31:23.350Z,102028.06
2023-05-09T04:33:52.465Z,101991.59
2023-05-09T04:36:21.166Z,102010.44
2023-05-09T04:38:48.935Z,102020.13
2023-05-09T04:41:21.553Z,101971.06
2023-05-09T04:43:48.810Z,102032.66
2023-05-09T04:46:16.191Z,102017.38
2023-05-09T04:48:43.548Z,102019.03
2023-05-09T04:51:10.953Z,102018.81
2023-05-09T04:53:38.221Z,102029.69
2023-05-09T04:56:06.659Z,102030.16
2023-05-09T04:58:38.543Z,102040.09
2023-05-09T05:01:09.515Z,102030.63
2023-05-09T05:03:36.711Z,102043.56
2023-05-09T05:06:04.781Z,102010.78
2023-05-09T05:08:32.596Z,102044.81
2023-05-09T05:10:59.819Z,102031.38
2023-05-09T05:13:27.473Z,102039.03
2023-05-09T05:15:59.027Z,102034.13
2023-05-09T05:18:26.159Z,102038.59
2023-05-09T05:20:54.150Z,102040.38
2023-05-09T05:23:21.873Z,102033.19
2023-05-09T05:25:52.435Z,102024.56
2023-05-09T05:28:19.776Z,102006.06
2023-05-09T05:30:47.352Z,102020.25
2023-05-09T05:33:14.528Z,102035.94
2023-05-09T05:35:41.855Z,102029.47
2023-05-09T05:38:09.165Z,102016.28
2023-05-09T05:40:36.618Z,102049.81
2023-05-09T05:43:05.969Z,102054.53
2023-05-09T05:45:35.156Z,102039.78
2023-05-09T05:48:05.684Z,102055.78
2023-05-09T05:50:33.144Z,102057.28
2023-05-09T05:53:00.280Z,102057.72
2023-05-09T05:55:27.479Z,102061.97
2023-05-09T05:57:54.649Z,102055.72
2023-05-09T06:00:22.000Z,102069.03
2023-05-09T06:02:55.987Z,102062.97
2023-05-09T06:05:36.794Z,102061.47
2023-05-09T06:08:05.099Z,102062.97
2023-05-09T06:10:32.979Z,102038.88
2023-05-09T06:13:00.552Z,102049.22
2023-05-09T06:15:27.974Z,102055.94
2023-05-09T06:17:55.846Z,102069.81
2023-05-09T06:20:23.099Z,102057.97
2023-05-09T06:22:50.324Z,102065.47
2023-05-09T06:25:17.533Z,102055.06
2023-05-09T06:27:45.703Z,102059.59
2023-05-09T06:30:24.812Z,102041.34
2023-05-09T06:32:58.376Z,102075.13
2023-05-09T06:35:25.772Z,102016.72
2023-05-09T06:37:52.894Z,102038.69
2023-05-09T06:40:20.209Z,102080.56
2023-05-09T06:42:47.345Z,102060.22
2023-05-09T06:45:15.495Z,102019.47
2023-05-09T06:47:42.877Z,102074.59
2023-05-09T06:50:10.127Z,102072.78
2023-05-09T06:52:37.318Z,102071.81
2023-05-09T06:55:04.735Z,102067.16
2023-05-09T06:57:32.341Z,102068.31
2023-05-09T06:59:59.448Z,102059.25
2023-05-09T07:02:26.601Z,102066.81
2023-05-09T07:04:53.731Z,102070.91
2023-05-09T07:07:20.939Z,102067.53
2023-05-09T07:09:50.748Z,102061.63
2023-05-09T07:12:19.945Z,102081.31
2023-05-09T07:14:47.006Z,102055.50
2023-05-09T07:17:22.840Z,102041.91
2023-05-09T07:19:51.584Z,102045.97
2023-05-09T07:22:18.798Z,102067.78
2023-05-09T07:24:46.638Z,102074.44
2023-05-09T07:27:14.084Z,102058.44
2023-05-09T07:29:41.334Z,102047.22
2023-05-09T07:32:08.479Z,102070.50
2023-05-09T07:34:36.370Z,102059.13
2023-05-09T07:37:03.764Z,102065.53
2023-05-09T07:39:30.860Z,102081.63
2023-05-09T07:41:57.990Z,102076.38
2023-05-09T07:44:25.207Z,102055.75
2023-05-09T07:46:52.253Z,102082.25
2023-05-09T07:49:19.267Z,102073.16
2023-05-09T07:51:46.315Z,102071.94
2023-05-09T07:54:13.725Z,102072.81
2023-05-09T07:56:41.042Z,102083.13
2023-05-09T07:59:08.224Z,102075.97
2023-05-09T08:01:35.286Z,102057.09
2023-05-09T08:04:02.617Z,102059.31
2023-05-09T08:06:29.659Z,102090.47
2023-05-09T08:08:56.821Z,102075.06
2023-05-09T08:11:24.180Z,102071.22
2023-05-09T08:13:51.411Z,102077.44
2023-05-09T08:16:18.694Z,102062.34
2023-05-09T08:18:46.234Z,102066.50
2023-05-09T08:21:13.579Z,102071.94
2023-05-09T08:23:41.435Z,102070.78
2023-05-09T08:26:08.527Z,102054.16
2023-05-09T08:28:35.716Z,102072.91
2023-05-09T08:31:03.100Z,102038.41
2023-05-09T08:33:30.669Z,102056.66
2023-05-09T08:35:57.984Z,102071.97
2023-05-09T08:38:25.072Z,102099.91
2023-05-09T08:40:52.308Z,102074.59
2023-05-09T08:43:22.146Z,102084.78
2023-05-09T08:45:54.391Z,102095.44
2023-05-09T08:48:22.726Z,102079.78
2023-05-09T08:50:50.529Z,102065.88
2023-05-09T08:53:17.970Z,102090.91
2023-05-09T08:55:45.603Z,102089.91
2023-05-09T08:58:13.831Z,102103.25
2023-05-09T09:00:41.738Z,102095.78
2023-05-09T09:03:08.864Z,102083.69
2023-05-09T09:05:41.682Z,102096.75
2023-05-09T09:08:11.152Z,102084.97
2023-05-09T09:10:42.386Z,102093.13
2023-05-09T09:13:12.589Z,102100.50
2023-05-09T09:15:43.639Z,102103.34
2023-05-09T09:18:22.203Z,102087.97
2023-05-09T09:21:05.957Z,102083.25
2023-05-09T09:23:33.695Z,102089.59
2023-05-09T09:26:07.237Z,102089.59
2023-05-09T09:28:34.158Z,102103.09
2023-05-09T09:31:01.990Z,102059.25
2023-05-09T09:33:29.718Z,102090.00
2023-05-09T09:35:57.316Z,102083.16
2023-05-09T09:38:25.110Z,102095.53
2023-05-09T09:40:52.141Z,102089.72
2023-05-09T09:43:19.417Z,102059.13
2023-05-09T09:45:51.455Z,102084.28
2023-05-09T09:48:18.625Z,102087.75
2023-05-09T09:50:47.946Z,102092.44
2023-05-09T09:53:14.913Z,102085.78
2023-05-09T09:55:50.988Z,102088.00
2023-05-09T09:58:21.936Z,102074.03
2023-05-09T10:01:06.359Z,102069.75
2023-05-09T10:03:42.272Z,102080.75
2023-05-09T10:06:14.285Z,102075.56
2023-05-09T10:08:43.764Z,102097.03
2023-05-09T10:11:11.390Z,102089.66
2023-05-09T10:13:39.442Z,102088.31
2023-05-09T10:16:09.021Z,102080.97
2023-05-09T10:18:36.539Z,102089.16
2023-05-09T10:21:05.509Z,102077.25
2023-05-09T10:23:38.489Z,102093.88
2023-05-09T10:26:27.658Z,102073.88
2023-05-09T10:29:01.610Z,102077.06
2023-05-09T10:31:32.615Z,102060.63
2023-05-09T10:34:05.457Z,102092.78
2023-05-09T10:36:33.166Z,102075.66
2023-05-09T10:39:01.269Z,102066.91
2023-05-09T10:41:29.234Z,102074.56
2023-05-09T10:43:58.330Z,102086.66
2023-05-09T10:46:27.575Z,102079.34
2023-05-09T10:48:55.612Z,102040.50
2023-05-09T10:51:24.720Z,102048.84
2023-05-09T10:53:51.897Z,102080.31
2023-05-09T10:56:33.607Z,102083.75
2023-05-09T10:59:00.946Z,102069.88
2023-05-09T11:01:39.722Z,102078.53
2023-05-09T11:04:12.908Z,102075.28
2023-05-09T11:06:51.362Z,102064.41
2023-05-09T11:09:39.266Z,102068.66
2023-05-09T11:12:13.523Z,102076.56
2023-05-09T11:14:47.377Z,102072.50
2023-05-09T11:17:24.599Z,102060.75
2023-05-09T11:19:51.852Z,102064.31
2023-05-09T11:22:37.955Z,102056.69
2023-05-09T11:25:10.356Z,102058.03
2023-05-09T11:27:39.826Z,102054.94
2023-05-09T11:30:09.051Z,102037.22
2023-05-09T11:32:48.099Z,102046.47
2023-05-09T11:35:21.071Z,102046.97
2023-05-09T11:38:06.141Z,102056.81
2023-05-09T11:40:34.977Z,102060.47
2023-05-09T11:43:02.221Z,102053.47
2023-05-09T11:45:31.631Z,102048.66
2023-05-09T11:48:00.673Z,102040.97
2023-05-09T11:50:28.012Z,102011.72
2023-05-09T11:52:55.159Z,102027.00
2023-05-09T11:55:22.995Z,102046.31
2023-05-09T11:57:53.025Z,102031.31
2023-05-09T12:00:24.907Z,102042.69
2023-05-09T12:02:53.467Z,102045.13
2023-05-09T12:05:22.989Z,102043.16
2023-05-09T12:07:51.052Z,102042.63
2023-05-09T12:10:23.362Z,102030.28
2023-05-09T12:12:52.276Z,101999.72
2023-05-09T12:15:21.514Z,102056.19
2023-05-09T12:18:01.303Z,102005.41
2023-05-09T12:20:28.401Z,102010.91
2023-05-09T12:22:56.059Z,102022.09
2023-05-09T12:25:23.114Z,102011.38
2023-05-09T12:27:50.427Z,102010.81
2023-05-09T12:30:18.785Z,101988.69
2023-05-09T12:32:46.827Z,101924.50
2023-05-09T12:35:14.822Z,101993.97
2023-05-09T12:37:56.365Z,101996.34
2023-05-09T12:40:23.633Z,101990.38
2023-05-09T12:42:53.903Z,101976.47
2023-05-09T12:45:21.218Z,101979.22
2023-05-09T12:47:52.206Z,101938.50
2023-05-09T12:50:19.629Z,101983.69
2023-05-09T12:53:02.713Z,101981.53
2023-05-09T12:55:31.719Z,101972.50
2023-05-09T12:58:03.616Z,101968.63
2023-05-09T13:00:43.481Z,101969.78
2023-05-09T13:03:25.556Z,101966.47
2023-05-09T13:06:02.472Z,101947.19
2023-05-09T13:08:29.828Z,101953.09
2023-05-09T13:11:07.742Z,101962.34
2023-05-09T13:13:42.671Z,101939.78
2023-05-09T13:16:11.130Z,101949.16
2023-05-09T13:18:39.313Z,101955.63
2023-05-09T13:21:06.456Z,101945.00
2023-05-09T13:23:33.551Z,101936.31
2023-05-09T13:26:00.526Z,101918.31
2023-05-09T13:28:27.705Z,101917.16
2023-05-09T13:30:54.843Z,101933.75
2023-05-09T13:33:25.869Z,101942.41
2023-05-09T13:35:53.859Z,101929.72
2023-05-09T13:38:21.025Z,101929.41
2023-05-09T13:40:48.052Z,101916.22
2023-05-09T13:43:15.079Z,101917.63
2023-05-09T13:45:42.403Z,101927.06
2023-05-09T13:48:09.724Z,101924.91
2023-05-09T13:50:36.779Z,101917.16
2023-05-09T13:53:03.843Z,101928.22
2023-05-09T13:55:31.106Z,101929.22
2023-05-09T13:57:58.262Z,101924.44
2023-05-09T14:00:26.740Z,101922.91
2023-05-09T14:02:54.209Z,101900.94
2023-05-09T14:05:21.700Z,101911.31
2023-05-09T14:07:48.968Z,101914.47
2023-05-09T14:10:17.651Z,101919.31
2023-05-09T14:12:46.757Z,101915.00
2023-05-09T14:15:14.181Z,101915.69
2023-05-09T14:17:41.386Z,101910.06
2023-05-09T14:20:09.068Z,101907.66
2023-05-09T14:22:36.181Z,101890.66
2023-05-09T14:25:03.279Z,101904.59
2023-05-09T14:27:30.431Z,101901.94
2023-05-09T14:29:57.641Z,101836.88
2023-05-09T14:32:25.436Z,101886.66
2023-05-09T14:34:52.556Z,101873.66
2023-05-09T14:37:19.659Z,101896.44
2023-05-09T14:39:46.950Z,101885.16
2023-05-09T14:42:14.323Z,101894.25
2023-05-09T14:44:41.974Z,101869.91
2023-05-09T14:47:09.972Z,101897.31
2023-05-09T14:49:38.820Z,101892.31
2023-05-09T14:52:06.175Z,101884.81
2023-05-09T14:54:33.245Z,101885.25
2023-05-09T14:57:02.092Z,101892.72
2023-05-09T14:59:29.684Z,101880.41
2023-05-09T15:01:56.875Z,101884.56
2023-05-09T15:04:28.283Z,101890.94
2023-05-09T15:06:55.527Z,101885.59
2023-05-09T15:09:22.742Z,101853.47
2023-05-09T15:11:49.852Z,101875.72
2023-05-09T15:14:17.108Z,101892.78
2023-05-09T15:16:44.572Z,101894.50
2023-05-09T15:19:11.655Z,101892.16
2023-05-09T15:21:38.743Z,101862.16
2023-05-09T15:24:06.292Z,101879.88
2023-05-09T15:26:33.419Z,101864.34
2023-05-09T15:29:00.460Z,101883.41
2023-05-09T15:31:33.384Z,101885.06
2023-05-09T15:34:01.169Z,101878.44
2023-05-09T15:36:32.243Z,101875.00
2023-05-09T15:38:59.581Z,101870.81
2023-05-09T15:41:27.320Z,101850.00
2023-05-09T15:43:54.350Z,101838.41
2023-05-09T15:46:21.991Z,101870.63
2023-05-09T15:48:49.175Z,101885.59
2023-05-09T15:51:16.450Z,101880.75
2023-05-09T15:53:43.598Z,101835.41
2023-05-09T15:56:10.716Z,101871.41
2023-05-09T15:58:37.797Z,101859.09
2023-05-09T16:01:06.304Z,101870.00
2023-05-09T16:03:35.021Z,101865.16
2023-05-09T16:06:02.453Z,101843.72
2023-05-09T16:08:29.584Z,101864.91
2023-05-09T16:10:56.719Z,101858.53
2023-05-09T16:13:24.027Z,101866.16
2023-05-09T16:15:51.356Z,101873.00
2023-05-09T16:18:18.904Z,101856.34
2023-05-09T16:20:46.110Z,101867.81
2023-05-09T16:23:13.346Z,101866.88
2023-05-09T16:25:40.553Z,101851.53
2023-05-09T16:28:08.565Z,101871.94
2023-05-09T16:30:36.297Z,101868.75
2023-05-09T16:33:03.968Z,101847.09
2023-05-09T16:35:31.175Z,101865.59
2023-05-09T16:37:58.394Z,101847.72
2023-05-09T16:40:25.477Z,101868.72
2023-05-09T16:42:53.842Z,101857.66
2023-05-09T16:45:21.152Z,101876.97
2023-05-09T16:47:48.652Z,101872.28
2023-05-09T16:50:16.260Z,101885.88
2023-05-09T16:52:43.572Z,101863.16
2023-05-09T16:55:10.688Z,101850.97
2023-05-09T16:57:37.798Z,101879.56
2023-05-09T17:00:07.940Z,101800.31
2023-05-09T17:02:36.370Z,101880.44
2023-05-09T17:05:04.686Z,101861.97
2023-05-09T17:07:32.314Z,101861.22
2023-05-09T17:09:59.704Z,101826.25
2023-05-09T17:12:27.803Z,101832.09
2023-05-09T17:14:54.888Z,101862.81
2023-05-09T17:17:22.004Z,101874.59
2023-05-09T17:19:49.161Z,101868.47
2023-05-09T17:22:16.217Z,101854.63
2023-05-09T17:24:43.267Z,101866.84
2023-05-09T17:27:11.574Z,101815.75
2023-05-09T17:29:38.658Z,101858.16
2023-05-09T17:32:06.772Z,101870.91
2023-05-09T17:34:34.051Z,101869.09
2023-05-09T17:37:02.429Z,101863.22
2023-05-09T17:39:29.824Z,101873.56
2023-05-09T17:41:56.929Z,101862.25
2023-05-09T17:44:24.247Z,101837.63
2023-05-09T17:46:51.397Z,101861.50
2023-05-09T17:49:18.467Z,101852.59
2023-05-09T17:51:45.571Z,101861.47
2023-05-09T17:54:13.133Z,101865.59
2023-05-09T17:56:40.279Z,101868.44
2023-05-09T17:59:07.996Z,101864.13
2023-05-09T18:01:35.245Z,101857.31
2023-05-09T18:04:02.864Z,101860.94
2023-05-09T18:06:30.014Z,101846.44
2023-05-09T18:08:57.277Z,101848.75
2023-05-09T18:11:24.710Z,101869.09
2023-05-09T18:13:51.920Z,101875.63
2023-05-09T18:16:19.134Z,101884.47
2023-05-09T18:18:46.455Z,101855.69
2023-05-09T18:21:13.632Z,101868.44
2023-05-09T18:23:41.559Z,101861.16
2023-05-09T18:26:08.783Z,101860.53
2023-05-09T18:28:41.622Z,101866.72
2023-05-09T18:31:11.896Z,101836.31
2023-05-09T18:33:39.462Z,101866.56
2023-05-09T18:36:09.632Z,101872.28
2023-05-09T18:38:38.704Z,101855.34
2023-05-09T18:41:08.710Z,101875.09
2023-05-09T18:43:38.762Z,101874.13
2023-05-09T18:46:06.011Z,101867.72
2023-05-09T18:48:33.626Z,101880.16
2023-05-09T18:51:00.880Z,101880.25
2023-05-09T18:53:29.035Z,101875.34
2023-05-09T18:55:58.832Z,101858.25
2023-05-09T18:58:25.945Z,101882.28
2023-05-09T19:00:53.266Z,101873.97
2023-05-09T19:03:21.106Z,101845.63
2023-05-09T19:05:48.129Z,101859.97
2023-05-09T19:08:15.326Z,101876.56
2023-05-09T19:10:42.704Z,101869.00
2023-05-09T19:13:09.970Z,101881.53
2023-05-09T19:15:37.484Z,101884.78
2023-05-09T19:18:05.213Z,101882.75
2023-05-09T19:20:32.400Z,101880.88
2023-05-09T19:22:59.520Z,101886.66
2023-05-09T19:25:26.912Z,101892.38
2023-05-09T19:27:54.103Z,101887.47
2023-05-09T19:30:21.259Z,101867.88
2023-05-09T19:32:48.643Z,101881.22
2023-05-09T19:35:16.238Z,101882.81
2023-05-09T19:37:43.425Z,101878.81
2023-05-09T19:40:11.482Z,101877.25
2023-05-09T19:42:38.529Z,101877.25
2023-05-09T19:45:06.182Z,101877.25
2023-05-09T19:47:33.299Z,101859.56
2023-05-09T19:50:02.221Z,101876.31
2023-05-09T19:52:30.050Z,101853.84
2023-05-09T19:54:57.195Z,101872.97
2023-05-09T19:57:24.299Z,101876.78
2023-05-09T19:59:52.255Z,101862.09
2023-05-09T20:02:19.257Z,101876.44
2023-05-09T20:04:50.061Z,101855.94
2023-05-09T20:07:17.715Z,101869.94
2023-05-09T20:09:45.937Z,101873.78
2023-05-09T20:12:13.921Z,101872.06
2023-05-09T20:14:41.061Z,101853.13
2023-05-09T20:17:08.398Z,101859.97
2023-05-09T20:19:35.534Z,101842.66
2023-05-09T20:22:03.807Z,101859.03
2023-05-09T20:24:33.617Z,101853.31
2023-05-09T20:27:02.386Z,101867.91
2023-05-09T20:29:29.583Z,101868.72
2023-05-09T20:31:56.647Z,101813.66
2023-05-09T20:34:24.762Z,101837.28
2023-05-09T20:36:55.201Z,101846.69
2023-05-09T20:39:23.130Z,101854.63
2023-05-09T20:41:51.476Z,101855.44
2023-05-09T20:44:19.227Z,101822.50
2023-05-09T20:46:46.472Z,101853.72
2023-05-09T20:49:13.862Z,101852.09
2023-05-09T20:51:40.963Z,101793.53
2023-05-09T20:54:08.200Z,101853.53
2023-05-09T20:56:35.734Z,101829.16
2023-05-09T20:59:04.436Z,101840.97
2023-05-09T21:01:34.438Z,101826.50
2023-05-09T21:04:01.478Z,101840.34
2023-05-09T21:06:28.607Z,101833.97
2023-05-09T21:08:55.640Z,101822.50
2023-05-09T21:11:22.674Z,101838.59
2023-05-09T21:13:50.346Z,101825.56
2023-05-09T21:16:17.495Z,101826.34
2023-05-09T21:18:44.639Z,101815.84
2023-05-09T21:21:11.776Z,101821.53
2023-05-09T21:23:38.826Z,101799.06
2023-05-09T21:26:05.920Z,101827.84
2023-05-09T21:28:33.063Z,101820.94
2023-05-09T21:31:01.757Z,101807.94
2023-05-09T21:33:29.576Z,101817.50
2023-05-09T21:35:57.205Z,101815.38
2023-05-09T21:38:24.335Z,101825.75
2023-05-09T21:40:51.578Z,101831.63
2023-05-09T21:43:19.075Z,101831.31
2023-05-09T21:45:46.342Z,101813.53
2023-05-09T21:48:13.767Z,101832.03
2023-05-09T21:50:44.848Z,101824.16
2023-05-09T21:53:12.736Z,101837.56
2023-05-09T21:55:39.976Z,101830.91
2023-05-09T21:58:07.058Z,101829.19
2023-05-09T22:00:34.063Z,101820.16
2023-05-09T22:03:01.290Z,101811.91
2023-05-09T22:05:28.405Z,101815.91
2023-05-09T22:07:55.524Z,101809.53
2023-05-09T22:10:22.661Z,101820.47
2023-05-09T22:12:49.821Z,101794.41
2023-05-09T22:15:17.061Z,101806.47
2023-05-09T22:17:44.773Z,101817.44
2023-05-09T22:20:12.386Z,101794.34
2023-05-09T22:22:39.425Z,101804.34
2023-05-09T22:25:06.955Z,101821.22
2023-05-09T22:27:34.052Z,101819.63
2023-05-09T22:30:01.770Z,101814.25
2023-05-09T22:32:28.901Z,101813.78
2023-05-09T22:34:55.966Z,101808.06
2023-05-09T22:37:23.000Z,101800.50
2023-05-09T22:39:50.139Z,101800.13
2023-05-09T22:42:17.151Z,101804.09
2023-05-09T22:44:44.181Z,101815.09
2023-05-09T22:47:11.268Z,101804.75
2023-05-09T22:49:38.306Z,101796.66
2023-05-09T22:52:05.452Z,101801.44
2023-05-09T22:54:32.446Z,101805.28
2023-05-09T22:56:59.502Z,101805.75
2023-05-09T22:59:27.134Z,101791.47
2023-05-09T23:01:54.465Z,101799.81
2023-05-09T23:04:21.917Z,101806.03
2023-05-09T23:06:48.950Z,101798.72
2023-05-09T23:09:16.250Z,101803.38
2023-05-09T23:11:43.292Z,101796.34
2023-05-09T23:14:10.598Z,101798.09
2023-05-09T23:16:37.676Z,101788.53
2023-05-09T23:19:04.737Z,101784.09
2023-05-09T23:21:31.795Z,101786.06
2023-05-09T23:23:58.878Z,101780.44
2023-05-09T23:26:25.883Z,101787.84
2023-05-09T23:28:55.228Z,101774.22
2023-05-09T23:31:22.445Z,101758.97
2023-05-09T23:33:49.727Z,101773.00
2023-05-09T23:36:16.943Z,101787.25
2023-05-09T23:38:44.008Z,101790.66
2023-05-09T23:41:11.100Z,101779.94
2023-05-09T23:43:38.229Z,101784.75
2023-05-09T23:46:05.400Z,101779.03
2023-05-09T23:48:32.590Z,101779.59
2023-05-09T23:50:59.584Z,101749.09
2023-05-09T23:53:26.706Z,101768.94
2023-05-09T23:55:53.731Z,101764.63
2023-05-09T23:58:21.293Z,101764.28
